sensor_id;sensor_type;location;lat;lon;timestamp;temperature;humidity
10905;DHT22;5505;51.450;9.254;2023-08-06T00:01:49;14.00;99.90
10905;DHT22;5505;51.450;9.254;2023-08-06T00:04:37;14.10;99.90
10905;DHT22;5505;51.450;9.254;2023-08-06T00:07:24;14.10;99.90
10905;DHT22;5505;51.450;9.254;2023-08-06T00:10:11;14.10;99.90
10905;DHT22;5505;51.450;9.254;2023-08-06T00:12:57;14.10;99.90
10905;DHT22;5505;51.450;9.254;2023-08-06T00:15:44;14.00;99.90
10905;DHT22;5505;51.450;9.254;2023-08-06T00:18:31;14.00;99.90
10905;DHT22;5505;51.450;9.254;2023-08-06T00:21:19;14.10;99.90
10905;DHT22;5505;51.450;9.254;2023-08-06T00:24:06;14.10;99.90
10905;DHT22;5505;51.450;9.254;2023-08-06T00:26:52;14.10;99.90
10905;DHT22;5505;51.450;9.254;2023-08-06T00:29:39;14.10;99.90
10905;DHT22;5505;51.450;9.254;2023-08-06T00:32:26;14.10;99.90
10905;DHT22;5505;51.450;9.254;2023-08-06T00:35:13;14.20;99.90
10905;DHT22;5505;51.450;9.254;2023-08-06T00:38:01;14.10;99.90
10905;DHT22;5505;51.450;9.254;2023-08-06T00:40:48;15.20;99.90
10905;DHT22;5505;51.450;9.254;2023-08-06T00:43:34;14.00;99.90
10905;DHT22;5505;51.450;9.254;2023-08-06T00:46:21;14.00;99.90
10905;DHT22;5505;51.450;9.254;2023-08-06T00:49:08;14.00;99.90
10905;DHT22;5505;51.450;9.254;2023-08-06T00:51:56;14.00;99.90
10905;DHT22;5505;51.450;9.254;2023-08-06T00:54:44;14.10;99.90
10905;DHT22;5505;51.450;9.254;2023-08-06T00:57:31;14.10;99.90
10905;DHT22;5505;51.450;9.254;2023-08-06T01:00:19;14.00;99.90
10905;DHT22;5505;51.450;9.254;2023-08-06T01:03:06;13.90;99.90
10905;DHT22;5505;51.450;9.254;2023-08-06T01:05:53;13.90;99.90
10905;DHT22;5505;51.450;9.254;2023-08-06T01:08:46;13.90;99.90
10905;DHT22;5505;51.450;9.254;2023-08-06T01:11:41;13.90;99.90
10905;DHT22;5505;51.450;9.254;2023-08-06T01:14:36;15.00;99.90
10905;DHT22;5505;51.450;9.254;2023-08-06T01:17:24;13.80;99.90
10905;DHT22;5505;51.450;9.254;2023-08-06T01:20:12;13.90;99.90
10905;DHT22;5505;51.450;9.254;2023-08-06T01:23:00;13.80;99.90
10905;DHT22;5505;51.450;9.254;2023-08-06T01:25:52;13.90;99.90
10905;DHT22;5505;51.450;9.254;2023-08-06T01:28:52;14.00;99.90
10905;DHT22;5505;51.450;9.254;2023-08-06T01:31:43;14.00;99.90
10905;DHT22;5505;51.450;9.254;2023-08-06T01:34:33;14.00;99.90
10905;DHT22;5505;51.450;9.254;2023-08-06T01:37:20;14.00;99.90
10905;DHT22;5505;51.450;9.254;2023-08-06T01:40:10;14.00;99.90
10905;DHT22;5505;51.450;9.254;2023-08-06T01:42:57;14.00;99.90
10905;DHT22;5505;51.450;9.254;2023-08-06T01:45:44;14.10;99.90
10905;DHT22;5505;51.450;9.254;2023-08-06T01:48:30;14.10;99.90
10905;DHT22;5505;51.450;9.254;2023-08-06T01:51:17;14.10;99.90
10905;DHT22;5505;51.450;9.254;2023-08-06T01:54:04;14.10;99.90
10905;DHT22;5505;51.450;9.254;2023-08-06T01:56:52;14.00;99.90
10905;DHT22;5505;51.450;9.254;2023-08-06T01:59:39;13.90;99.90
10905;DHT22;5505;51.450;9.254;2023-08-06T02:02:26;14.00;99.90
10905;DHT22;5505;51.450;9.254;2023-08-06T02:05:13;13.90;99.90
10905;DHT22;5505;51.450;9.254;2023-08-06T02:08:00;13.90;99.90
10905;DHT22;5505;51.450;9.254;2023-08-06T02:10:47;13.90;99.90
10905;DHT22;5505;51.450;9.254;2023-08-06T02:13:35;13.90;99.90
10905;DHT22;5505;51.450;9.254;2023-08-06T02:16:21;13.90;99.90
10905;DHT22;5505;51.450;9.254;2023-08-06T02:19:08;13.90;99.90
10905;DHT22;5505;51.450;9.254;2023-08-06T02:21:55;14.00;99.90
10905;DHT22;5505;51.450;9.254;2023-08-06T02:24:42;14.00;99.90
10905;DHT22;5505;51.450;9.254;2023-08-06T02:27:29;14.10;99.90
10905;DHT22;5505;51.450;9.254;2023-08-06T02:30:17;14.10;99.90
10905;DHT22;5505;51.450;9.254;2023-08-06T02:33:04;14.00;99.90
10905;DHT22;5505;51.450;9.254;2023-08-06T02:35:50;14.00;99.90
10905;DHT22;5505;51.450;9.254;2023-08-06T02:38:37;13.90;99.90
10905;DHT22;5505;51.450;9.254;2023-08-06T02:41:24;13.80;99.90
10905;DHT22;5505;51.450;9.254;2023-08-06T02:44:11;13.80;99.90
10905;DHT22;5505;51.450;9.254;2023-08-06T02:46:59;13.80;99.90
10905;DHT22;5505;51.450;9.254;2023-08-06T02:49:46;13.70;99.90
10905;DHT22;5505;51.450;9.254;2023-08-06T02:52:33;13.60;99.90
10905;DHT22;5505;51.450;9.254;2023-08-06T02:55:19;13.60;99.90
10905;DHT22;5505;51.450;9.254;2023-08-06T02:58:06;13.60;99.90
10905;DHT22;5505;51.450;9.254;2023-08-06T03:01:00;13.50;99.90
10905;DHT22;5505;51.450;9.254;2023-08-06T03:03:49;13.40;99.90
10905;DHT22;5505;51.450;9.254;2023-08-06T03:06:36;13.30;99.90
10905;DHT22;5505;51.450;9.254;2023-08-06T03:09:23;13.30;99.90
10905;DHT22;5505;51.450;9.254;2023-08-06T03:12:09;13.40;99.90
10905;DHT22;5505;51.450;9.254;2023-08-06T03:14:56;13.40;99.90
10905;DHT22;5505;51.450;9.254;2023-08-06T03:17:43;13.30;99.90
10905;DHT22;5505;51.450;9.254;2023-08-06T03:20:32;13.40;99.90
10905;DHT22;5505;51.450;9.254;2023-08-06T03:23:18;13.40;99.90
10905;DHT22;5505;51.450;9.254;2023-08-06T03:26:05;13.40;99.90
10905;DHT22;5505;51.450;9.254;2023-08-06T03:28:52;13.40;99.90
10905;DHT22;5505;51.450;9.254;2023-08-06T03:31:39;13.30;99.90
10905;DHT22;5505;51.450;9.254;2023-08-06T03:34:25;13.30;99.90
10905;DHT22;5505;51.450;9.254;2023-08-06T03:37:13;13.80;99.90
10905;DHT22;5505;51.450;9.254;2023-08-06T03:40:00;13.30;99.90
10905;DHT22;5505;51.450;9.254;2023-08-06T03:42:48;13.30;99.90
10905;DHT22;5505;51.450;9.254;2023-08-06T03:45:35;13.20;99.90
10905;DHT22;5505;51.450;9.254;2023-08-06T03:48:21;13.20;99.90
10905;DHT22;5505;51.450;9.254;2023-08-06T03:51:08;13.20;99.90
10905;DHT22;5505;51.450;9.254;2023-08-06T03:53:56;13.20;99.90
10905;DHT22;5505;51.450;9.254;2023-08-06T03:56:43;13.30;99.90
10905;DHT22;5505;51.450;9.254;2023-08-06T03:59:30;13.40;99.90
10905;DHT22;5505;51.450;9.254;2023-08-06T04:02:17;13.40;99.90
10905;DHT22;5505;51.450;9.254;2023-08-06T04:05:04;13.50;99.90
10905;DHT22;5505;51.450;9.254;2023-08-06T04:07:51;13.60;99.90
10905;DHT22;5505;51.450;9.254;2023-08-06T04:10:40;13.60;99.90
10905;DHT22;5505;51.450;9.254;2023-08-06T04:13:27;13.70;99.90
10905;DHT22;5505;51.450;9.254;2023-08-06T04:16:13;13.70;99.90
10905;DHT22;5505;51.450;9.254;2023-08-06T04:19:00;13.70;99.90
10905;DHT22;5505;51.450;9.254;2023-08-06T04:21:47;13.80;99.90
10905;DHT22;5505;51.450;9.254;2023-08-06T04:24:34;13.90;99.90
10905;DHT22;5505;51.450;9.254;2023-08-06T04:27:22;13.90;99.90
10905;DHT22;5505;51.450;9.254;2023-08-06T04:30:09;13.90;99.90
10905;DHT22;5505;51.450;9.254;2023-08-06T04:32:57;13.90;99.90
10905;DHT22;5505;51.450;9.254;2023-08-06T04:35:44;13.90;99.90
10905;DHT22;5505;51.450;9.254;2023-08-06T04:38:31;13.90;99.90
10905;DHT22;5505;51.450;9.254;2023-08-06T04:41:18;13.90;99.90
10905;DHT22;5505;51.450;9.254;2023-08-06T04:44:06;13.90;99.90
10905;DHT22;5505;51.450;9.254;2023-08-06T04:46:53;14.00;99.90
10905;DHT22;5505;51.450;9.254;2023-08-06T04:49:39;14.00;99.90
10905;DHT22;5505;51.450;9.254;2023-08-06T04:52:26;14.20;99.90
10905;DHT22;5505;51.450;9.254;2023-08-06T04:55:13;14.00;99.90
10905;DHT22;5505;51.450;9.254;2023-08-06T04:58:00;14.10;99.90
10905;DHT22;5505;51.450;9.254;2023-08-06T05:00:48;14.10;99.90
10905;DHT22;5505;51.450;9.254;2023-08-06T05:03:35;14.20;99.90
10905;DHT22;5505;51.450;9.254;2023-08-06T05:06:22;14.20;99.90
10905;DHT22;5505;51.450;9.254;2023-08-06T05:09:09;14.20;99.90
10905;DHT22;5505;51.450;9.254;2023-08-06T05:11:55;14.20;99.90
10905;DHT22;5505;51.450;9.254;2023-08-06T05:14:42;14.20;99.90
10905;DHT22;5505;51.450;9.254;2023-08-06T05:17:30;14.30;99.90
10905;DHT22;5505;51.450;9.254;2023-08-06T05:20:17;15.00;99.90
10905;DHT22;5505;51.450;9.254;2023-08-06T05:23:04;14.40;99.90
10905;DHT22;5505;51.450;9.254;2023-08-06T05:25:51;14.40;99.90
10905;DHT22;5505;51.450;9.254;2023-08-06T05:28:37;14.50;99.90
10905;DHT22;5505;51.450;9.254;2023-08-06T05:31:24;14.60;99.90
10905;DHT22;5505;51.450;9.254;2023-08-06T05:34:12;14.70;99.90
10905;DHT22;5505;51.450;9.254;2023-08-06T05:36:59;14.80;99.90
10905;DHT22;5505;51.450;9.254;2023-08-06T05:39:46;14.80;99.90
10905;DHT22;5505;51.450;9.254;2023-08-06T05:42:32;14.90;99.90
10905;DHT22;5505;51.450;9.254;2023-08-06T05:45:19;14.80;99.90
10905;DHT22;5505;51.450;9.254;2023-08-06T05:48:06;14.90;99.90
10905;DHT22;5505;51.450;9.254;2023-08-06T05:50:54;14.90;99.90
10905;DHT22;5505;51.450;9.254;2023-08-06T05:53:41;14.90;99.90
10905;DHT22;5505;51.450;9.254;2023-08-06T05:56:28;14.90;99.90
10905;DHT22;5505;51.450;9.254;2023-08-06T05:59:14;16.80;99.90
10905;DHT22;5505;51.450;9.254;2023-08-06T06:02:01;15.00;99.90
10905;DHT22;5505;51.450;9.254;2023-08-06T06:04:48;14.90;99.90
10905;DHT22;5505;51.450;9.254;2023-08-06T06:07:36;14.90;99.90
10905;DHT22;5505;51.450;9.254;2023-08-06T06:10:23;14.90;99.90
10905;DHT22;5505;51.450;9.254;2023-08-06T06:13:10;15.00;99.90
10905;DHT22;5505;51.450;9.254;2023-08-06T06:15:56;14.90;99.90
10905;DHT22;5505;51.450;9.254;2023-08-06T06:18:43;15.00;99.90
10905;DHT22;5505;51.450;9.254;2023-08-06T06:21:30;15.00;99.90
10905;DHT22;5505;51.450;9.254;2023-08-06T06:24:18;14.90;99.90
10905;DHT22;5505;51.450;9.254;2023-08-06T06:27:05;14.90;99.90
10905;DHT22;5505;51.450;9.254;2023-08-06T06:29:52;14.90;99.90
10905;DHT22;5505;51.450;9.254;2023-08-06T06:32:40;15.00;99.90
10905;DHT22;5505;51.450;9.254;2023-08-06T06:35:27;15.00;99.90
10905;DHT22;5505;51.450;9.254;2023-08-06T06:38:14;15.20;99.90
10905;DHT22;5505;51.450;9.254;2023-08-06T06:41:02;15.40;99.90
10905;DHT22;5505;51.450;9.254;2023-08-06T06:43:48;15.50;99.90
10905;DHT22;5505;51.450;9.254;2023-08-06T06:46:35;15.60;99.90
10905;DHT22;5505;51.450;9.254;2023-08-06T06:49:22;15.70;99.90
10905;DHT22;5505;51.450;9.254;2023-08-06T06:52:09;15.90;99.90
10905;DHT22;5505;51.450;9.254;2023-08-06T06:54:56;16.00;99.90
10905;DHT22;5505;51.450;9.254;2023-08-06T06:57:45;16.20;99.90
10905;DHT22;5505;51.450;9.254;2023-08-06T07:00:31;16.30;99.90
10905;DHT22;5505;51.450;9.254;2023-08-06T07:03:19;16.40;99.90
10905;DHT22;5505;51.450;9.254;2023-08-06T07:06:06;16.50;99.90
10905;DHT22;5505;51.450;9.254;2023-08-06T07:08:53;16.50;99.90
10905;DHT22;5505;51.450;9.254;2023-08-06T07:11:40;16.60;99.90
10905;DHT22;5505;51.450;9.254;2023-08-06T07:14:30;16.70;99.90
10905;DHT22;5505;51.450;9.254;2023-08-06T07:17:17;16.70;99.90
10905;DHT22;5505;51.450;9.254;2023-08-06T07:20:05;16.70;99.90
10905;DHT22;5505;51.450;9.254;2023-08-06T07:22:54;16.70;99.90
10905;DHT22;5505;51.450;9.254;2023-08-06T07:25:41;16.70;99.90
10905;DHT22;5505;51.450;9.254;2023-08-06T07:28:28;16.80;99.90
10905;DHT22;5505;51.450;9.254;2023-08-06T07:31:16;16.80;99.90
10905;DHT22;5505;51.450;9.254;2023-08-06T07:34:03;16.90;99.90
10905;DHT22;5505;51.450;9.254;2023-08-06T07:36:49;17.10;99.90
10905;DHT22;5505;51.450;9.254;2023-08-06T07:39:36;17.80;99.90
10905;DHT22;5505;51.450;9.254;2023-08-06T07:42:24;17.30;99.90
10905;DHT22;5505;51.450;9.254;2023-08-06T07:45:11;17.20;99.90
10905;DHT22;5505;51.450;9.254;2023-08-06T07:47:59;17.40;99.90
10905;DHT22;5505;51.450;9.254;2023-08-06T07:50:46;17.50;99.90
10905;DHT22;5505;51.450;9.254;2023-08-06T07:53:37;17.50;99.90
10905;DHT22;5505;51.450;9.254;2023-08-06T07:56:24;17.70;99.90
10905;DHT22;5505;51.450;9.254;2023-08-06T07:59:10;17.80;99.90
10905;DHT22;5505;51.450;9.254;2023-08-06T08:01:57;17.90;99.90
10905;DHT22;5505;51.450;9.254;2023-08-06T08:04:45;18.00;99.90
10905;DHT22;5505;51.450;9.254;2023-08-06T08:07:32;17.90;99.90
10905;DHT22;5505;51.450;9.254;2023-08-06T08:10:19;18.10;99.90
10905;DHT22;5505;51.450;9.254;2023-08-06T08:13:06;18.10;99.90
10905;DHT22;5505;51.450;9.254;2023-08-06T08:15:58;18.80;99.90
10905;DHT22;5505;51.450;9.254;2023-08-06T08:18:45;18.00;99.90
10905;DHT22;5505;51.450;9.254;2023-08-06T08:21:33;17.80;99.90
10905;DHT22;5505;51.450;9.254;2023-08-06T08:24:20;17.80;99.90
10905;DHT22;5505;51.450;9.254;2023-08-06T08:27:09;17.70;99.90
10905;DHT22;5505;51.450;9.254;2023-08-06T08:29:56;18.30;99.90
10905;DHT22;5505;51.450;9.254;2023-08-06T08:32:42;18.00;99.90
10905;DHT22;5505;51.450;9.254;2023-08-06T08:35:29;18.20;99.90
10905;DHT22;5505;51.450;9.254;2023-08-06T08:38:17;18.30;99.90
10905;DHT22;5505;51.450;9.254;2023-08-06T08:41:05;18.40;99.90
10905;DHT22;5505;51.450;9.254;2023-08-06T08:43:52;18.40;99.90
10905;DHT22;5505;51.450;9.254;2023-08-06T08:46:41;18.50;99.90
10905;DHT22;5505;51.450;9.254;2023-08-06T08:49:29;18.60;99.90
10905;DHT22;5505;51.450;9.254;2023-08-06T08:52:17;18.40;99.90
10905;DHT22;5505;51.450;9.254;2023-08-06T08:55:08;18.50;99.90
10905;DHT22;5505;51.450;9.254;2023-08-06T08:57:55;18.70;99.90
10905;DHT22;5505;51.450;9.254;2023-08-06T09:00:42;18.80;99.90
10905;DHT22;5505;51.450;9.254;2023-08-06T09:03:30;18.80;99.90
10905;DHT22;5505;51.450;9.254;2023-08-06T09:06:19;19.10;99.90
10905;DHT22;5505;51.450;9.254;2023-08-06T09:09:08;19.30;99.90
10905;DHT22;5505;51.450;9.254;2023-08-06T09:12:00;19.60;99.90
10905;DHT22;5505;51.450;9.254;2023-08-06T09:14:47;19.70;99.90
10905;DHT22;5505;51.450;9.254;2023-08-06T09:17:34;19.60;99.90
10905;DHT22;5505;51.450;9.254;2023-08-06T09:20:21;19.70;99.90
10905;DHT22;5505;51.450;9.254;2023-08-06T09:23:08;19.40;99.90
10905;DHT22;5505;51.450;9.254;2023-08-06T09:25:56;19.40;99.90
10905;DHT22;5505;51.450;9.254;2023-08-06T09:28:44;19.30;99.90
10905;DHT22;5505;51.450;9.254;2023-08-06T09:31:33;19.30;99.90
10905;DHT22;5505;51.450;9.254;2023-08-06T09:34:22;19.30;99.90
10905;DHT22;5505;51.450;9.254;2023-08-06T09:37:09;19.30;99.90
10905;DHT22;5505;51.450;9.254;2023-08-06T09:39:57;19.30;99.90
10905;DHT22;5505;51.450;9.254;2023-08-06T09:42:43;19.40;99.90
10905;DHT22;5505;51.450;9.254;2023-08-06T09:45:33;19.40;99.90
10905;DHT22;5505;51.450;9.254;2023-08-06T09:48:24;19.30;99.90
10905;DHT22;5505;51.450;9.254;2023-08-06T09:51:13;19.30;99.90
10905;DHT22;5505;51.450;9.254;2023-08-06T09:54:01;19.30;99.90
10905;DHT22;5505;51.450;9.254;2023-08-06T09:56:48;19.40;99.90
10905;DHT22;5505;51.450;9.254;2023-08-06T09:59:35;19.50;99.90
10905;DHT22;5505;51.450;9.254;2023-08-06T10:02:26;19.70;99.90
10905;DHT22;5505;51.450;9.254;2023-08-06T10:05:13;19.70;99.90
10905;DHT22;5505;51.450;9.254;2023-08-06T10:08:02;19.60;99.90
10905;DHT22;5505;51.450;9.254;2023-08-06T10:10:50;19.50;99.90
10905;DHT22;5505;51.450;9.254;2023-08-06T10:13:38;19.50;99.90
10905;DHT22;5505;51.450;9.254;2023-08-06T10:16:25;19.70;99.90
10905;DHT22;5505;51.450;9.254;2023-08-06T10:19:15;19.90;99.90
10905;DHT22;5505;51.450;9.254;2023-08-06T10:22:13;19.60;99.90
10905;DHT22;5505;51.450;9.254;2023-08-06T10:25:01;19.40;99.90
10905;DHT22;5505;51.450;9.254;2023-08-06T10:27:54;19.40;99.90
10905;DHT22;5505;51.450;9.254;2023-08-06T10:30:42;19.40;99.90
10905;DHT22;5505;51.450;9.254;2023-08-06T10:33:41;19.40;99.90
10905;DHT22;5505;51.450;9.254;2023-08-06T10:36:30;19.70;99.90
10905;DHT22;5505;51.450;9.254;2023-08-06T10:39:18;19.90;99.90
10905;DHT22;5505;51.450;9.254;2023-08-06T10:42:05;20.00;99.90
10905;DHT22;5505;51.450;9.254;2023-08-06T10:45:11;19.90;99.90
10905;DHT22;5505;51.450;9.254;2023-08-06T10:47:58;19.90;99.90
10905;DHT22;5505;51.450;9.254;2023-08-06T10:50:45;19.90;99.90
10905;DHT22;5505;51.450;9.254;2023-08-06T10:53:33;19.90;99.90
10905;DHT22;5505;51.450;9.254;2023-08-06T10:56:21;19.90;99.90
10905;DHT22;5505;51.450;9.254;2023-08-06T10:59:08;19.70;99.90
10905;DHT22;5505;51.450;9.254;2023-08-06T11:01:57;19.60;99.90
10905;DHT22;5505;51.450;9.254;2023-08-06T11:04:43;19.60;99.90
10905;DHT22;5505;51.450;9.254;2023-08-06T11:07:30;19.70;99.90
10905;DHT22;5505;51.450;9.254;2023-08-06T11:10:18;19.70;99.90
10905;DHT22;5505;51.450;9.254;2023-08-06T11:13:05;19.70;99.90
10905;DHT22;5505;51.450;9.254;2023-08-06T11:15:53;19.70;99.90
10905;DHT22;5505;51.450;9.254;2023-08-06T11:18:40;19.60;99.90
10905;DHT22;5505;51.450;9.254;2023-08-06T11:21:27;19.70;99.90
10905;DHT22;5505;51.450;9.254;2023-08-06T11:24:14;19.60;99.90
10905;DHT22;5505;51.450;9.254;2023-08-06T11:27:05;19.60;99.90
10905;DHT22;5505;51.450;9.254;2023-08-06T11:29:57;19.70;99.90
10905;DHT22;5505;51.450;9.254;2023-08-06T11:32:47;19.80;99.90
10905;DHT22;5505;51.450;9.254;2023-08-06T11:35:35;19.90;99.90
10905;DHT22;5505;51.450;9.254;2023-08-06T11:38:24;19.80;99.90
10905;DHT22;5505;51.450;9.254;2023-08-06T11:41:12;19.80;99.90
10905;DHT22;5505;51.450;9.254;2023-08-06T11:44:00;19.80;99.90
10905;DHT22;5505;51.450;9.254;2023-08-06T11:46:50;19.60;99.90
10905;DHT22;5505;51.450;9.254;2023-08-06T11:49:40;19.60;99.90
10905;DHT22;5505;51.450;9.254;2023-08-06T11:52:29;19.50;99.90
10905;DHT22;5505;51.450;9.254;2023-08-06T11:55:16;19.60;99.90
10905;DHT22;5505;51.450;9.254;2023-08-06T11:58:04;19.50;99.90
10905;DHT22;5505;51.450;9.254;2023-08-06T12:00:52;19.50;99.90
10905;DHT22;5505;51.450;9.254;2023-08-06T12:03:41;19.60;99.90
10905;DHT22;5505;51.450;9.254;2023-08-06T12:06:28;19.60;99.90
10905;DHT22;5505;51.450;9.254;2023-08-06T12:09:15;19.70;99.90
10905;DHT22;5505;51.450;9.254;2023-08-06T12:12:02;19.60;99.90
10905;DHT22;5505;51.450;9.254;2023-08-06T12:14:50;19.60;99.90
10905;DHT22;5505;51.450;9.254;2023-08-06T12:17:38;19.50;99.90
10905;DHT22;5505;51.450;9.254;2023-08-06T12:20:25;19.50;99.90
10905;DHT22;5505;51.450;9.254;2023-08-06T12:23:12;19.40;99.90
10905;DHT22;5505;51.450;9.254;2023-08-06T12:26:00;19.40;99.90
10905;DHT22;5505;51.450;9.254;2023-08-06T12:28:47;19.50;99.90
10905;DHT22;5505;51.450;9.254;2023-08-06T12:31:35;19.50;99.90
10905;DHT22;5505;51.450;9.254;2023-08-06T12:34:23;19.50;99.90
10905;DHT22;5505;51.450;9.254;2023-08-06T12:37:10;19.50;99.90
10905;DHT22;5505;51.450;9.254;2023-08-06T12:39:57;19.70;99.90
10905;DHT22;5505;51.450;9.254;2023-08-06T12:42:43;19.80;99.90
10905;DHT22;5505;51.450;9.254;2023-08-06T12:45:30;19.80;99.90
10905;DHT22;5505;51.450;9.254;2023-08-06T12:48:17;19.90;99.90
10905;DHT22;5505;51.450;9.254;2023-08-06T12:51:06;20.10;99.90
10905;DHT22;5505;51.450;9.254;2023-08-06T12:53:52;20.30;99.90
10905;DHT22;5505;51.450;9.254;2023-08-06T12:56:39;20.30;99.90
10905;DHT22;5505;51.450;9.254;2023-08-06T12:59:26;20.40;99.90
10905;DHT22;5505;51.450;9.254;2023-08-06T13:02:12;20.50;99.90
10905;DHT22;5505;51.450;9.254;2023-08-06T13:04:59;20.70;99.90
10905;DHT22;5505;51.450;9.254;2023-08-06T13:07:50;20.90;99.90
10905;DHT22;5505;51.450;9.254;2023-08-06T13:10:37;21.00;99.90
10905;DHT22;5505;51.450;9.254;2023-08-06T13:13:23;21.10;99.90
10905;DHT22;5505;51.450;9.254;2023-08-06T13:16:12;21.00;99.90
10905;DHT22;5505;51.450;9.254;2023-08-06T13:18:59;20.90;99.90
10905;DHT22;5505;51.450;9.254;2023-08-06T13:22:00;20.70;99.90
10905;DHT22;5505;51.450;9.254;2023-08-06T13:24:49;20.40;99.90
10905;DHT22;5505;51.450;9.254;2023-08-06T13:27:35;20.00;99.90
10905;DHT22;5505;51.450;9.254;2023-08-06T13:30:22;19.60;99.90
10905;DHT22;5505;51.450;9.254;2023-08-06T13:33:10;19.20;99.90
10905;DHT22;5505;51.450;9.254;2023-08-06T13:35:57;20.70;99.90
10905;DHT22;5505;51.450;9.254;2023-08-06T13:38:44;18.50;99.90
10905;DHT22;5505;51.450;9.254;2023-08-06T13:41:32;18.00;99.90
10905;DHT22;5505;51.450;9.254;2023-08-06T13:44:19;17.80;99.90
10905;DHT22;5505;51.450;9.254;2023-08-06T13:47:06;17.70;99.90
10905;DHT22;5505;51.450;9.254;2023-08-06T13:49:52;17.50;99.90
10905;DHT22;5505;51.450;9.254;2023-08-06T13:52:39;17.50;99.90
10905;DHT22;5505;51.450;9.254;2023-08-06T13:55:26;17.40;99.90
10905;DHT22;5505;51.450;9.254;2023-08-06T13:58:14;17.30;99.90
10905;DHT22;5505;51.450;9.254;2023-08-06T14:01:01;17.30;99.90
10905;DHT22;5505;51.450;9.254;2023-08-06T14:03:48;17.20;99.90
10905;DHT22;5505;51.450;9.254;2023-08-06T14:06:35;17.20;99.90
10905;DHT22;5505;51.450;9.254;2023-08-06T14:09:21;17.10;99.90
10905;DHT22;5505;51.450;9.254;2023-08-06T14:12:08;17.20;99.90
10905;DHT22;5505;51.450;9.254;2023-08-06T14:14:56;17.10;99.90
10905;DHT22;5505;51.450;9.254;2023-08-06T14:17:44;17.00;99.90
10905;DHT22;5505;51.450;9.254;2023-08-06T14:20:31;17.00;99.90
10905;DHT22;5505;51.450;9.254;2023-08-06T14:23:18;17.10;99.90
10905;DHT22;5505;51.450;9.254;2023-08-06T14:26:04;17.20;99.90
10905;DHT22;5505;51.450;9.254;2023-08-06T14:28:51;17.20;99.90
10905;DHT22;5505;51.450;9.254;2023-08-06T14:31:41;17.40;99.90
10905;DHT22;5505;51.450;9.254;2023-08-06T14:34:28;17.60;99.90
10905;DHT22;5505;51.450;9.254;2023-08-06T14:37:15;17.80;99.90
10905;DHT22;5505;51.450;9.254;2023-08-06T14:40:02;18.20;99.90
10905;DHT22;5505;51.450;9.254;2023-08-06T14:42:49;18.30;99.90
10905;DHT22;5505;51.450;9.254;2023-08-06T14:45:37;18.40;99.90
10905;DHT22;5505;51.450;9.254;2023-08-06T14:48:27;18.50;99.90
10905;DHT22;5505;51.450;9.254;2023-08-06T14:51:13;18.60;99.90
10905;DHT22;5505;51.450;9.254;2023-08-06T14:54:00;18.70;99.90
10905;DHT22;5505;51.450;9.254;2023-08-06T14:56:47;18.70;99.90
10905;DHT22;5505;51.450;9.254;2023-08-06T14:59:34;18.60;99.90
10905;DHT22;5505;51.450;9.254;2023-08-06T15:02:20;18.50;99.90
10905;DHT22;5505;51.450;9.254;2023-08-06T15:05:09;18.60;99.90
10905;DHT22;5505;51.450;9.254;2023-08-06T15:07:56;18.40;99.90
10905;DHT22;5505;51.450;9.254;2023-08-06T15:10:42;18.40;99.90
10905;DHT22;5505;51.450;9.254;2023-08-06T15:13:29;18.40;99.90
10905;DHT22;5505;51.450;9.254;2023-08-06T15:16:16;18.30;99.90
10905;DHT22;5505;51.450;9.254;2023-08-06T15:19:03;18.30;99.90
10905;DHT22;5505;51.450;9.254;2023-08-06T15:21:51;18.40;99.90
10905;DHT22;5505;51.450;9.254;2023-08-06T15:24:38;18.50;99.90
10905;DHT22;5505;51.450;9.254;2023-08-06T15:27:27;19.50;99.90
10905;DHT22;5505;51.450;9.254;2023-08-06T15:30:14;18.60;99.90
10905;DHT22;5505;51.450;9.254;2023-08-06T15:33:02;19.80;99.90
10905;DHT22;5505;51.450;9.254;2023-08-06T15:35:49;18.30;99.90
10905;DHT22;5505;51.450;9.254;2023-08-06T15:38:37;18.00;99.90
10905;DHT22;5505;51.450;9.254;2023-08-06T15:41:24;17.70;99.90
10905;DHT22;5505;51.450;9.254;2023-08-06T15:44:10;17.60;99.90
10905;DHT22;5505;51.450;9.254;2023-08-06T15:46:57;17.40;99.90
10905;DHT22;5505;51.450;9.254;2023-08-06T15:49:44;17.10;99.90
10905;DHT22;5505;51.450;9.254;2023-08-06T15:52:31;17.00;99.90
10905;DHT22;5505;51.450;9.254;2023-08-06T15:55:19;17.00;99.90
10905;DHT22;5505;51.450;9.254;2023-08-06T15:58:06;15.10;99.90
10905;DHT22;5505;51.450;9.254;2023-08-06T16:00:53;16.80;99.90
10905;DHT22;5505;51.450;9.254;2023-08-06T16:03:40;16.80;99.90
10905;DHT22;5505;51.450;9.254;2023-08-06T16:06:28;16.60;99.90
10905;DHT22;5505;51.450;9.254;2023-08-06T16:09:15;16.50;99.90
10905;DHT22;5505;51.450;9.254;2023-08-06T16:12:04;16.40;99.90
10905;DHT22;5505;51.450;9.254;2023-08-06T16:14:51;16.30;99.90
10905;DHT22;5505;51.450;9.254;2023-08-06T16:17:38;16.20;99.90
10905;DHT22;5505;51.450;9.254;2023-08-06T16:20:25;16.20;99.90
10905;DHT22;5505;51.450;9.254;2023-08-06T16:23:11;16.10;99.90
10905;DHT22;5505;51.450;9.254;2023-08-06T16:25:58;16.10;99.90
10905;DHT22;5505;51.450;9.254;2023-08-06T16:28:46;16.10;99.90
10905;DHT22;5505;51.450;9.254;2023-08-06T16:31:33;16.10;99.90
10905;DHT22;5505;51.450;9.254;2023-08-06T16:34:20;16.00;99.90
10905;DHT22;5505;51.450;9.254;2023-08-06T16:37:07;16.00;99.90
10905;DHT22;5505;51.450;9.254;2023-08-06T16:39:55;15.90;99.90
10905;DHT22;5505;51.450;9.254;2023-08-06T16:42:42;15.90;99.90
10905;DHT22;5505;51.450;9.254;2023-08-06T16:45:31;18.00;99.90
10905;DHT22;5505;51.450;9.254;2023-08-06T16:48:23;15.80;99.90
10905;DHT22;5505;51.450;9.254;2023-08-06T16:51:12;15.80;99.90
10905;DHT22;5505;51.450;9.254;2023-08-06T16:54:01;15.70;99.90
10905;DHT22;5505;51.450;9.254;2023-08-06T16:56:48;15.60;99.90
10905;DHT22;5505;51.450;9.254;2023-08-06T16:59:35;15.60;99.90
10905;DHT22;5505;51.450;9.254;2023-08-06T17:02:23;15.50;99.90
10905;DHT22;5505;51.450;9.254;2023-08-06T17:05:10;15.50;99.90
10905;DHT22;5505;51.450;9.254;2023-08-06T17:07:56;15.50;99.90
10905;DHT22;5505;51.450;9.254;2023-08-06T17:10:43;15.40;99.90
10905;DHT22;5505;51.450;9.254;2023-08-06T17:13:30;15.50;99.90
10905;DHT22;5505;51.450;9.254;2023-08-06T17:16:17;15.40;99.90
10905;DHT22;5505;51.450;9.254;2023-08-06T17:19:05;15.40;99.90
10905;DHT22;5505;51.450;9.254;2023-08-06T17:21:52;15.30;99.90
10905;DHT22;5505;51.450;9.254;2023-08-06T17:24:39;15.30;99.90
10905;DHT22;5505;51.450;9.254;2023-08-06T17:27:25;15.30;99.90
10905;DHT22;5505;51.450;9.254;2023-08-06T17:30:12;15.30;99.90
10905;DHT22;5505;51.450;9.254;2023-08-06T17:32:59;15.20;99.90
10905;DHT22;5505;51.450;9.254;2023-08-06T17:35:47;15.20;99.90
10905;DHT22;5505;51.450;9.254;2023-08-06T17:38:35;15.20;99.90
10905;DHT22;5505;51.450;9.254;2023-08-06T17:41:21;15.20;99.90
10905;DHT22;5505;51.450;9.254;2023-08-06T17:44:08;15.10;99.90
10905;DHT22;5505;51.450;9.254;2023-08-06T17:46:56;15.10;99.90
10905;DHT22;5505;51.450;9.254;2023-08-06T17:49:43;15.00;99.90
10905;DHT22;5505;51.450;9.254;2023-08-06T17:52:32;15.10;99.90
10905;DHT22;5505;51.450;9.254;2023-08-06T17:55:19;15.20;99.90